Wilmington, DE (19895)

5:12 PM EDT on August 21, 2014 (GMT -0400)
BrightFields, Inc. | Change Station
CLOSE
Current Station
Personal Weather Station
Location: Wilmington, DE
Elevation: 20 ft
Nearby Weather Stations

Elev 20 ft 39.74 °N, 75.53 °W | Updated 1 second ago

Clear
Clear
80.2 °F
Feels Like 81 °F
N
2.0
Wind Variable Wind from West
Gusts 2.0 mph

Today
High -- | Low -- °F
--% Chance of Precip.
Yesterday
High -- | Low -- °F
Precip. -- in
6:19 AM 7:50 PM
Waning Crescent, 12% visible
Pressure 30.01 in
Visibility 10.0 miles
Clouds Clear
Heat Index 81 °F
Dew Point 60 °F
Humidity 50%
Rainfall 0.00 in
Snow Depth Not available.
UV 4 out of 12
Pollen 8.60 out of 12
Air Quality Not available.
Flu Activity Not available.
METAR KILG 212051Z 15008KT 10SM CLR 27/22 A3001

More Conditions Fewer Conditions

Pressure 30.01 in
Visibility 10.0 miles
Clouds Clear
Heat Index 81 °F
Dew Point 60 °F
Humidity 50%
Rainfall 0.00 in
Snow Depth Not available.
UV 4 out of 12
Pollen 8.60 out of 12
Air Quality Not available.
Flu Activity Not available.
METAR KILG 212051Z 15008KT 10SM CLR 27/22 A3001

More Conditions Fewer Conditions

10-Day Weather Forecast

Almanac

Astronomy

Aug. 21, 2014 Rise Set
Actual Time 6:19 AM EDT 7:50 PM EDT
Civil Twilight 5:51 AM EDT 8:18 PM EDT
Nautical Twilight 5:17 AM EDT 8:52 PM EDT
Astronomical Twilight 4:41 AM EDT 9:28 PM EDT
Moon 2:48 AM EDT 5:16 PM EDT
Length of Visible Light 14h 26m
Length of Day
13h 30m
Tomorrow will be 2m 24s shorter.
Waning Crescent, 12% of the Moon is Illuminated
Today
Waning Crescent
Aug 25
New
Sep 2
First Quarter
Sep 8
Full
Sep 15
Last Quarter

Today's Extremes

State Highs State Lows

Community

WunderPhotos

Upload Photos

1,746,019 photos uploaded!

WunderBlogs® & News

Nearby

Snow Depth

Station Depth Elevation
No new snow has been reported.

Earthquake Activity

City Distance Mag. Time & Date
No recent earthquake activity has been reported nearby.
Minimum magnitude displayed is 2.5.

Coastal Water Temperatures

Place Temperature
Cape May, NJ 82.0 °F
Reedy Point, DE 79.0 °F
Delaware City, DE 79.0 °F
Marcus Hook, PA 79.0 °F

Nearby Weather Stations